createdAt,value
2023-03-10T18:29:12.506Z,3.05
2023-03-10T18:31:40.712Z,2.55
2023-03-10T18:34:10.077Z,2.70
2023-03-10T18:36:38.052Z,6.47
2023-03-10T18:39:07.703Z,4.28
2023-03-10T18:41:35.900Z,9.18
2023-03-10T18:44:03.815Z,4.22
2023-03-10T18:46:33.108Z,8.20
2023-03-10T18:49:01.081Z,9.32
2023-03-10T18:51:29.954Z,5.05
2023-03-10T18:53:58.000Z,9.32
2023-03-10T18:56:28.854Z,11.23
2023-03-10T18:58:56.766Z,7.72
2023-03-10T19:01:25.569Z,8.25
2023-03-10T19:03:54.844Z,9.98
2023-03-10T19:06:22.745Z,6.90
2023-03-10T19:08:53.236Z,6.65
2023-03-10T19:11:24.171Z,8.88
2023-03-10T19:13:52.349Z,8.95
2023-03-10T19:16:21.234Z,7.38
2023-03-10T19:18:49.385Z,7.65
2023-03-10T19:21:18.612Z,8.73
2023-03-10T19:23:46.503Z,8.65
2023-03-10T19:26:15.377Z,13.45
2023-03-10T19:28:43.354Z,7.50
2023-03-10T19:31:13.464Z,6.50
2023-03-10T19:33:41.730Z,9.45
2023-03-10T19:36:12.910Z,11.00
2023-03-10T19:38:43.715Z,10.10
2023-03-10T19:41:13.665Z,11.40
2023-03-10T19:43:41.661Z,9.23
2023-03-10T19:46:11.687Z,12.85
2023-03-10T19:48:40.398Z,10.45
2023-03-10T19:51:09.570Z,9.77
2023-03-10T19:53:37.510Z,11.40
2023-03-10T19:56:08.567Z,14.00
2023-03-10T19:58:38.076Z,13.85
2023-03-10T20:01:06.183Z,19.08
2023-03-10T20:03:34.630Z,14.75
2023-03-10T20:06:04.159Z,21.38
2023-03-10T20:08:33.978Z,16.60
2023-03-10T20:11:03.328Z,14.75
2023-03-10T20:13:33.431Z,15.63
2023-03-10T20:16:01.312Z,16.10
2023-03-10T20:18:29.276Z,16.77
2023-03-10T20:20:57.172Z,20.75
2023-03-10T20:23:25.361Z,19.95
2023-03-10T20:26:01.821Z,16.13
2023-03-10T20:28:29.970Z,16.17
2023-03-10T20:30:59.281Z,24.15
2023-03-10T20:33:27.757Z,13.13
2023-03-10T20:35:55.982Z,14.77
2023-03-10T20:38:24.164Z,20.50
2023-03-10T20:40:52.224Z,14.75
2023-03-10T20:43:20.101Z,16.02
2023-03-10T20:45:51.329Z,22.25
2023-03-10T20:48:20.579Z,14.82
2023-03-10T20:50:54.677Z,16.60
2023-03-10T20:53:22.949Z,15.00
2023-03-10T20:55:50.863Z,17.50
2023-03-10T20:58:18.949Z,10.70
2023-03-10T21:00:47.679Z,15.57
2023-03-10T21:03:15.725Z,13.70
2023-03-10T21:05:45.306Z,12.00
2023-03-10T21:08:13.660Z,17.23
2023-03-10T21:10:41.841Z,18.90
2023-03-10T21:13:09.749Z,14.18
2023-03-10T21:15:37.762Z,13.38
2023-03-10T21:18:05.715Z,13.80
2023-03-10T21:20:33.740Z,13.40
2023-03-10T21:23:02.987Z,12.95
2023-03-10T21:25:30.989Z,14.35
2023-03-10T21:27:59.890Z,16.20
2023-03-10T21:30:29.632Z,19.65
2023-03-10T21:32:58.440Z,21.83
2023-03-10T21:35:28.165Z,25.52
2023-03-10T21:37:57.267Z,28.45
2023-03-10T21:40:26.787Z,24.42
2023-03-10T21:42:54.703Z,28.67
2023-03-10T21:45:24.586Z,27.20
2023-03-10T21:47:52.497Z,25.48
2023-03-10T21:50:21.095Z,28.33
2023-03-10T21:52:49.075Z,24.50
2023-03-10T21:55:20.435Z,26.25
2023-03-10T21:57:49.930Z,30.30
2023-03-10T22:00:19.982Z,31.10
2023-03-10T22:02:48.524Z,25.83
2023-03-10T22:05:18.070Z,26.35
2023-03-10T22:07:46.454Z,22.52
2023-03-10T22:10:15.269Z,23.17
2023-03-10T22:12:43.118Z,23.80
2023-03-10T22:15:15.374Z,21.88
2023-03-10T22:17:43.391Z,22.25
2023-03-10T22:20:16.197Z,23.73
2023-03-10T22:22:44.065Z,21.17
2023-03-10T22:25:12.302Z,23.45
2023-03-10T22:27:40.270Z,28.25
2023-03-10T22:30:09.364Z,25.35
2023-03-10T22:32:38.640Z,20.67
2023-03-10T22:35:09.716Z,21.02
2023-03-10T22:37:37.737Z,23.08
2023-03-10T22:40:09.987Z,24.30
2023-03-10T22:42:39.007Z,20.83
2023-03-10T22:45:08.448Z,23.30
2023-03-10T22:47:37.672Z,23.30
2023-03-10T22:50:06.285Z,23.08
2023-03-10T22:52:34.839Z,26.77
2023-03-10T22:55:02.701Z,31.63
2023-03-10T22:57:30.581Z,26.08
2023-03-10T22:59:58.478Z,28.05
2023-03-10T23:02:26.365Z,26.33
2023-03-10T23:04:55.702Z,28.73
2023-03-10T23:07:23.576Z,29.08
2023-03-10T23:09:51.497Z,31.30
2023-03-10T23:12:19.363Z,24.98
2023-03-10T23:14:47.301Z,27.67
2023-03-10T23:17:15.180Z,29.45
2023-03-10T23:19:43.070Z,29.80
2023-03-10T23:22:12.282Z,27.60
2023-03-10T23:24:40.632Z,28.52
2023-03-10T23:27:08.500Z,28.58
2023-03-10T23:29:36.369Z,26.85
2023-03-10T23:32:04.255Z,28.50
2023-03-10T23:34:32.125Z,26.25
2023-03-10T23:36:59.991Z,28.35
2023-03-10T23:39:29.255Z,26.77
2023-03-10T23:41:57.161Z,27.10
2023-03-10T23:44:25.020Z,28.92
2023-03-10T23:46:53.131Z,29.70
2023-03-10T23:49:22.080Z,28.55
2023-03-10T23:51:52.473Z,28.30
2023-03-10T23:54:22.362Z,28.92
2023-03-10T23:56:51.905Z,29.63
2023-03-10T23:59:19.786Z,32.42
